Time;durP1;ratioP1;P1;durP2;ratioP2;P2;SDS_P1;SDS_P2;PMS_P1;PMS_P2;Temp;Humidity;BMP_temperature;BMP_pressure;BME280_temperature;BME280_humidity;BME280_pressure;Samples;Min_cycle;Max_cycle;Signal;HPM_P1;HPM_P2
2022/12/25 00:00:18;;;;;;;18.63;4.80;;;;;;;8.85;97.21;101116.28;5074471;28;20024;-68
2022/12/25 00:02:44;;;;;;;17.92;5.05;;;;;;;8.87;97.20;101111.97;5082594;28;20029;-68
2022/12/25 00:05:09;;;;;;;13.20;4.20;;;;;;;8.89;96.85;101110.28;5066774;28;20024;-69
2022/12/25 00:07:34;;;;;;;12.88;4.47;;;;;;;8.94;96.57;101118.03;5072237;28;20482;-68
2022/12/25 00:10:00;;;;;;;19.05;5.30;;;;;;;8.93;96.71;101114.56;5045328;28;20123;-68
2022/12/25 00:12:25;;;;;;;12.88;4.55;;;;;;;8.93;97.15;101113.75;5073742;28;20025;-68
2022/12/25 00:14:51;;;;;;;14.85;5.25;;;;;;;8.93;96.64;101124.88;5067361;28;20409;-68
2022/12/25 00:17:16;;;;;;;19.52;6.20;;;;;;;8.92;96.80;101118.03;5073114;28;20036;-68
2022/12/25 00:19:41;;;;;;;11.43;4.25;;;;;;;8.90;96.09;101124.88;5068445;28;20335;-68
2022/12/25 00:22:07;;;;;;;12.23;5.13;;;;;;;8.86;96.64;101122.28;5070772;28;20691;-69
2022/12/25 00:24:32;;;;;;;12.75;5.15;;;;;;;8.82;96.43;101118.84;5067376;28;20141;-68
2022/12/25 00:26:58;;;;;;;13.50;4.80;;;;;;;8.81;96.36;101114.53;5070701;28;20119;-69
2022/12/25 00:29:23;;;;;;;11.73;4.88;;;;;;;8.79;96.04;101123.97;5075517;28;20405;-68
2022/12/25 00:31:48;;;;;;;16.13;4.88;;;;;;;8.77;96.51;101119.66;5069162;28;20047;-68
2022/12/25 00:34:14;;;;;;;15.45;4.82;;;;;;;8.74;97.11;101111.94;5077033;28;20097;-67
2022/12/25 00:36:39;;;;;;;20.08;5.95;;;;;;;8.72;96.69;101114.50;5074041;28;20524;-68
2022/12/25 00:39:06;;;;;;;10.82;4.43;;;;;;;8.70;97.01;101115.34;5076702;28;20039;-68
2022/12/25 00:44:15;;;;;;;15.55;4.50;;;;;;;8.69;96.99;101111.06;5064096;28;20054;-68
2022/12/25 00:46:41;;;;;;;20.95;5.60;;;;;;;8.68;98.06;101107.59;5076723;28;20044;-68
2022/12/25 00:49:06;;;;;;;16.55;5.30;;;;;;;8.68;97.50;101120.50;5067939;28;20649;-68
2022/12/25 00:51:32;;;;;;;13.98;4.63;;;;;;;8.68;97.73;101119.63;5071224;28;20029;-68
2022/12/25 00:53:58;;;;;;;12.63;4.38;;;;;;;8.66;97.28;101122.22;5077606;28;20687;-68
2022/12/25 00:56:24;;;;;;;12.70;5.00;;;;;;;8.65;97.81;101120.47;5071633;28;20473;-68
2022/12/25 00:58:49;;;;;;;14.43;5.20;;;;;;;8.64;98.07;101115.31;5077624;28;20050;-68
2022/12/25 01:01:15;;;;;;;13.02;4.25;;;;;;;8.64;98.10;101121.31;5082002;28;20032;-66
2022/12/25 01:03:40;;;;;;;15.80;4.43;;;;;;;8.65;97.77;101117.91;5078969;28;20040;-66
2022/12/25 01:06:07;;;;;;;11.95;4.25;;;;;;;8.64;97.91;101110.16;5062509;28;20082;-66
2022/12/25 01:08:36;;;;;;;15.35;4.38;;;;;;;8.63;98.06;101114.47;5068186;28;20043;-66
2022/12/25 01:11:06;;;;;;;13.20;4.13;;;;;;;8.66;98.30;101118.75;5059244;28;20040;-66
2022/12/25 01:13:34;;;;;;;14.55;3.65;;;;;;;8.68;98.64;101106.75;5056888;28;20043;-66
2022/12/25 01:16:08;;;;;;;8.40;3.67;;;;;;;8.72;98.74;101109.34;5071557;28;20032;-66
2022/12/25 01:18:34;;;;;;;11.77;3.63;;;;;;;8.77;98.93;101119.66;5061346;28;20102;-67
2022/12/25 01:21:05;;;;;;;12.25;3.67;;;;;;;8.80;99.03;101128.28;5083632;28;20438;-66
2022/12/25 01:23:31;;;;;;;7.88;3.53;;;;;;;8.85;98.83;101130.88;5071704;28;20087;-66
2022/12/25 01:26:03;;;;;;;14.68;4.03;;;;;;;8.91;98.85;101131.75;5049918;28;20485;-66
2022/12/25 01:28:28;;;;;;;8.68;3.40;;;;;;;8.94;98.98;101124.03;5068755;28;20051;-66
2022/12/25 01:30:54;;;;;;;13.25;3.75;;;;;;;8.98;98.13;101117.19;5077940;28;20041;-66
2022/12/25 01:33:19;;;;;;;12.40;4.25;;;;;;;9.02;98.62;101124.09;5071556;28;20082;-66
2022/12/25 01:35:44;;;;;;;15.13;4.38;;;;;;;9.08;98.36;101124.94;5077517;28;20052;-66
2022/12/25 01:38:10;;;;;;;15.40;4.25;;;;;;;9.12;98.89;101126.69;5068616;28;20040;-66
2022/12/25 01:40:35;;;;;;;14.27;4.20;;;;;;;9.16;98.43;101121.53;5067897;28;20111;-65
2022/12/25 01:43:01;;;;;;;16.73;4.35;;;;;;;9.16;98.50;101111.22;5071332;28;20039;-66
2022/12/25 01:45:36;;;;;;;17.45;4.85;;;;;;;9.18;98.42;101115.53;5068601;28;20029;-66
2022/12/25 01:48:07;;;;;;;18.02;4.25;;;;;;;9.21;98.95;101118.13;5078503;28;20129;-66
2022/12/25 01:50:34;;;;;;;12.30;4.25;;;;;;;9.23;98.43;101123.28;5066903;28;20033;-66
2022/12/25 01:53:00;;;;;;;16.48;4.35;;;;;;;9.27;98.84;101125.00;5045324;28;20044;-66
2022/12/25 01:55:27;;;;;;;16.10;4.00;;;;;;;9.29;97.90;101126.72;5051325;28;20425;-66
2022/12/25 01:57:52;;;;;;;18.08;4.28;;;;;;;9.33;98.25;101115.56;5042348;28;20460;-66
2022/12/25 02:00:18;;;;;;;20.63;4.53;;;;;;;9.40;98.73;101129.34;5050698;28;20033;-66
2022/12/25 02:02:44;;;;;;;15.77;4.65;;;;;;;9.47;98.83;101123.31;5043911;28;20033;-66
2022/12/25 02:05:26;;;;;;;18.70;4.00;;;;;;;9.55;98.60;101121.63;5030284;28;20029;-66
2022/12/25 02:07:53;;;;;;;23.85;4.30;;;;;;;9.57;97.90;101123.38;5037945;28;20048;-66
2022/12/25 02:10:19;;;;;;;12.82;3.60;;;;;;;9.63;97.87;101125.13;5046066;28;20490;-66
2022/12/25 02:12:46;;;;;;;14.90;3.83;;;;;;;9.65;98.05;101133.72;5043192;28;20078;-66
2022/12/25 02:15:17;;;;;;;8.90;3.70;;;;;;;9.68;97.51;101134.56;5039730;28;20094;-66
2022/12/25 02:17:58;;;;;;;12.77;3.50;;;;;;;9.71;97.65;101131.13;5049359;28;20043;-66
2022/12/25 02:20:24;;;;;;;12.93;3.80;;;;;;;9.73;97.08;101133.72;5051678;28;20029;-66
2022/12/25 02:23:00;;;;;;;15.65;3.38;;;;;;;9.74;96.67;101138.00;5030665;28;20041;-66
2022/12/25 02:25:56;;;;;;;16.23;3.85;;;;;;;9.76;96.72;101138.91;5050225;28;20035;-66
2022/12/25 02:28:27;;;;;;;14.32;3.92;;;;;;;9.75;97.17;101127.72;5048731;28;20033;-66
2022/12/25 02:31:05;;;;;;;18.70;3.92;;;;;;;9.73;97.07;101139.75;5054610;28;20048;-66
2022/12/25 02:34:01;;;;;;;17.25;3.40;;;;;;;9.73;96.59;101137.19;5053346;28;20111;-66
2022/12/25 02:36:37;;;;;;;14.35;4.53;;;;;;;9.70;96.77;101136.31;5053759;28;20131;-66
2022/12/25 02:41:59;;;;;;;8.65;3.40;;;;;;;9.63;96.59;101136.31;5041277;28;20056;-66
2022/12/25 03:07:00;;;;;;;17.50;3.95;;;;;;;9.41;98.06;101129.34;5075985;28;20039;-66
2022/12/25 03:12:20;;;;;;;16.55;4.72;;;;;;;9.57;98.20;101137.97;5069534;28;20055;-66
2022/12/25 03:17:32;;;;;;;10.00;3.63;;;;;;;9.69;97.75;101127.69;5055002;28;20132;-66
2022/12/25 03:28:12;;;;;;;15.48;4.28;;;;;;;9.89;96.68;101114.78;5063366;28;19924;-66
2022/12/25 03:31:12;;;;;;;12.95;3.25;;;;;;;9.92;95.89;101112.22;5073843;28;20020;-66
2022/12/25 03:37:03;;;;;;;10.68;3.22;;;;;;;9.99;94.46;101094.16;5069356;28;20070;-67
2022/12/25 04:37:19;;;;;;;13.47;3.40;;;;;;;9.99;94.49;101083.81;5065467;28;20050;-67
2022/12/25 04:39:45;;;;;;;14.68;3.65;;;;;;;10.00;94.14;101088.09;5073645;28;20036;-67
2022/12/25 04:42:10;;;;;;;13.27;3.17;;;;;;;9.97;94.68;101101.00;5071909;28;20107;-67
2022/12/25 04:44:35;;;;;;;14.82;3.13;;;;;;;9.96;94.00;101098.44;5050906;28;20040;-67
2022/12/25 04:47:01;;;;;;;12.60;3.60;;;;;;;9.94;94.56;101103.59;5061935;28;20047;-67
2022/12/25 04:49:27;;;;;;;9.35;3.22;;;;;;;9.90;95.18;101094.16;5070033;28;20036;-67
2022/12/25 04:51:52;;;;;;;12.35;3.30;;;;;;;9.89;94.20;101095.00;5064273;28;20045;-67
2022/12/25 04:54:18;;;;;;;13.15;3.10;;;;;;;9.87;94.88;101098.44;5053122;28;20509;-67
2022/12/25 04:56:43;;;;;;;13.80;3.30;;;;;;;9.84;94.51;101083.81;5046947;28;20509;-67
2022/12/25 04:59:08;;;;;;;12.43;3.35;;;;;;;9.82;94.91;101077.81;5047425;28;20093;-67
2022/12/25 05:01:34;;;;;;;16.90;3.80;;;;;;;9.80;94.79;101070.91;5046354;28;20025;-67
2022/12/25 05:03:59;;;;;;;13.60;3.42;;;;;;;9.78;94.99;101067.47;5017695;28;20437;-67
2022/12/25 05:06:25;;;;;;;10.95;3.65;;;;;;;9.76;95.43;101074.38;5035265;28;20029;-67
2022/12/25 05:08:50;;;;;;;8.93;3.22;;;;;;;9.75;94.67;101080.38;5048358;28;20060;-67
2022/12/25 05:11:16;;;;;;;10.23;2.95;;;;;;;9.74;94.93;101089.84;5046158;28;20044;-67
2022/12/25 05:13:41;;;;;;;15.48;3.00;;;;;;;9.72;94.93;101070.91;5046842;28;20060;-67
2022/12/25 05:16:11;;;;;;;13.07;3.60;;;;;;;9.72;94.96;101063.19;5036076;28;20068;-67
2022/12/25 05:18:36;;;;;;;10.10;3.60;;;;;;;9.71;95.09;101051.13;5047751;28;20067;-74
2022/12/25 05:21:03;;;;;;;10.50;2.83;;;;;;;9.70;94.98;101049.41;5056436;28;20067;-73
2022/12/25 05:23:29;;;;;;;12.02;3.40;;;;;;;9.65;95.06;101048.53;5043562;28;20258;-74
2022/12/25 05:25:54;;;;;;;15.90;4.43;;;;;;;9.63;96.05;101050.28;5047437;28;20032;-73
2022/12/25 05:28:20;;;;;;;13.40;3.67;;;;;;;9.61;95.17;101047.66;5049226;28;20509;-73
2022/12/25 05:30:45;;;;;;;11.85;3.88;;;;;;;9.61;96.17;101045.09;5031973;28;20041;-73
2022/12/25 05:33:10;;;;;;;10.75;3.55;;;;;;;9.63;95.45;101042.53;5054105;28;20025;-73
2022/12/25 05:35:37;;;;;;;15.85;3.50;;;;;;;9.64;96.06;101044.25;5054087;28;20033;-73
2022/12/25 05:38:04;;;;;;;13.82;3.75;;;;;;;9.63;95.45;101043.41;5046519;28;20029;-74
2022/12/25 05:40:29;;;;;;;14.88;3.42;;;;;;;9.66;95.36;101034.78;5041091;28;20391;-74
2022/12/25 05:42:54;;;;;;;13.25;3.28;;;;;;;9.68;95.29;101033.06;5045859;28;20044;-73
2022/12/25 05:45:21;;;;;;;13.32;3.70;;;;;;;9.70;95.56;101026.19;5045634;28;20044;-73
2022/12/25 05:47:46;;;;;;;14.80;5.13;;;;;;;9.71;95.75;101027.88;5042712;28;20524;-73
2022/12/25 05:50:11;;;;;;;12.80;6.05;;;;;;;9.70;94.57;101015.88;5048498;28;20044;-73
2022/12/25 05:52:37;;;;;;;18.20;5.20;;;;;;;9.67;94.96;101008.97;5048813;28;20436;-73
2022/12/25 05:55:02;;;;;;;20.90;5.53;;;;;;;9.66;94.99;101007.25;5067248;28;20029;-73
2022/12/25 05:57:29;;;;;;;11.80;4.65;;;;;;;9.64;95.30;101019.28;5065819;28;20036;-73
2022/12/25 05:59:54;;;;;;;18.52;4.40;;;;;;;9.66;95.11;101017.59;5073479;28;20128;-73
2022/12/25 06:02:20;;;;;;;11.80;3.20;;;;;;;9.70;95.41;101015.00;5066267;28;20124;-74
2022/12/25 06:04:45;;;;;;;11.93;3.13;;;;;;;9.72;94.84;101021.88;5072906;28;20043;-74
2022/12/25 06:07:11;;;;;;;14.07;2.85;;;;;;;9.78;95.48;101014.13;5071028;28;20041;-74
2022/12/25 06:09:36;;;;;;;10.55;2.70;;;;;;;9.85;95.01;101015.00;5067619;28;20032;-74
2022/12/25 06:12:02;;;;;;;12.10;2.70;;;;;;;9.88;95.01;101002.91;5067197;28;20406;-74
2022/12/25 06:14:27;;;;;;;13.90;2.97;;;;;;;9.92;94.82;100996.88;5065260;28;20028;-73
2022/12/25 06:16:53;;;;;;;10.23;2.72;;;;;;;9.94;94.32;100996.91;5066634;28;20044;-74
2022/12/25 06:19:19;;;;;;;11.43;2.97;;;;;;;9.91;93.78;101002.91;5076467;28;20524;-73
2022/12/25 06:21:45;;;;;;;10.57;3.03;;;;;;;9.93;94.24;101008.94;5072611;28;20036;-73
2022/12/25 06:24:10;;;;;;;10.93;3.05;;;;;;;9.96;94.20;100990.88;5059028;28;20402;-74
2022/12/25 06:26:36;;;;;;;15.43;3.95;;;;;;;9.99;94.07;100990.00;5064387;28;20033;-73
2022/12/25 06:29:01;;;;;;;16.17;3.17;;;;;;;10.02;94.50;100992.56;5071339;28;20040;-73
2022/12/25 06:31:27;;;;;;;12.35;3.90;;;;;;;10.05;93.92;100989.97;5068929;28;20033;-73
2022/12/25 06:33:52;;;;;;;12.02;3.95;;;;;;;10.07;93.18;100983.06;5068886;28;20032;-73
2022/12/25 06:36:24;;;;;;;12.40;3.75;;;;;;;10.10;93.54;100970.16;5067678;28;20237;-73
2022/12/25 06:38:50;;;;;;;16.30;3.90;;;;;;;10.07;93.87;100968.44;5068201;28;20032;-74
2022/12/25 06:41:21;;;;;;;7.88;3.22;;;;;;;10.06;93.68;100964.13;5066261;28;20467;-73
2022/12/25 06:43:52;;;;;;;11.80;3.33;;;;;;;10.02;92.99;100964.16;5066885;28;20041;-73
2022/12/25 06:46:18;;;;;;;13.60;3.97;;;;;;;9.99;93.58;100962.44;5064152;28;20506;-74
2022/12/25 06:48:48;;;;;;;11.40;3.70;;;;;;;9.98;93.51;100954.69;5064967;28;20085;-73
2022/12/25 06:51:14;;;;;;;14.27;4.13;;;;;;;9.96;94.32;100952.13;5046651;28;20033;-73
2022/12/25 06:53:40;;;;;;;9.25;3.45;;;;;;;9.97;93.90;100950.41;5051668;28;20035;-74
2022/12/25 06:56:08;;;;;;;11.45;3.60;;;;;;;9.99;94.00;100943.50;5061620;28;20451;-73
2022/12/25 06:58:33;;;;;;;10.93;4.18;;;;;;;10.02;93.43;100943.50;5069322;28;20082;-74
2022/12/25 07:00:59;;;;;;;9.65;4.30;;;;;;;10.01;93.75;100945.22;5073511;28;20475;-73
2022/12/25 07:03:28;;;;;;;10.68;3.83;;;;;;;10.03;93.85;100953.81;5074601;28;20036;-73
2022/12/25 07:05:53;;;;;;;9.32;4.38;;;;;;;10.05;93.38;100933.16;5069991;28;20639;-73
2022/12/25 07:08:19;;;;;;;10.82;3.78;;;;;;;10.04;93.26;100919.38;5076891;28;20032;-74
2022/12/25 07:10:44;;;;;;;13.13;4.60;;;;;;;10.02;93.65;100917.69;5071936;28;20067;-73
2022/12/25 07:13:09;;;;;;;10.73;4.10;;;;;;;9.97;94.08;100909.09;5066372;28;20041;-73
2022/12/25 07:15:35;;;;;;;12.35;4.43;;;;;;;9.95;93.71;100903.06;5067607;28;20051;-73
2022/12/25 07:18:01;;;;;;;8.80;3.85;;;;;;;9.94;93.84;100906.53;5070978;28;20123;-73
2022/12/25 07:20:26;;;;;;;8.38;3.53;;;;;;;9.95;94.06;100893.59;5071045;28;20102;-73
2022/12/25 07:22:52;;;;;;;13.75;4.65;;;;;;;9.96;94.31;100871.22;5070136;28;20590;-74
2022/12/25 07:25:17;;;;;;;10.30;5.07;;;;;;;9.93;93.81;100903.09;5066576;28;20128;-73
2022/12/25 07:27:43;;;;;;;16.02;5.70;;;;;;;9.93;94.51;100903.09;5066111;28;20024;-73
2022/12/25 07:30:09;;;;;;;7.13;3.88;;;;;;;9.96;93.95;100902.22;5057132;28;20031;-74
2022/12/25 07:32:35;;;;;;;7.57;3.95;;;;;;;9.98;94.28;100895.31;5067793;28;20033;-73
2022/12/25 07:35:00;;;;;;;7.70;4.15;;;;;;;10.00;93.84;100896.19;5070624;28;20540;-73
2022/12/25 07:37:25;;;;;;;8.50;4.68;;;;;;;10.04;94.03;100895.28;5068347;28;20040;-73
2022/12/25 07:39:51;;;;;;;11.50;5.15;;;;;;;10.06;93.56;100891.81;5066318;28;20124;-73
2022/12/25 07:42:16;;;;;;;11.88;3.88;;;;;;;10.07;94.04;100898.72;5069185;28;20024;-74
2022/12/25 07:44:41;;;;;;;8.57;3.67;;;;;;;10.09;93.85;100909.03;5068417;28;20044;-74
2022/12/25 07:47:07;;;;;;;8.15;4.13;;;;;;;10.12;93.08;100921.91;5064665;28;20032;-74
2022/12/25 07:49:32;;;;;;;11.35;3.97;;;;;;;10.14;94.32;100926.25;5050402;28;20413;-74
2022/12/25 07:51:58;;;;;;;10.32;4.50;;;;;;;10.16;93.76;100927.09;5074314;28;20508;-74
2022/12/25 07:54:23;;;;;;;13.65;3.97;;;;;;;10.16;93.90;100923.63;5068103;28;20048;-74
2022/12/25 07:56:52;;;;;;;9.57;4.05;;;;;;;10.17;93.92;100936.56;5050504;28;20436;-74
2022/12/25 07:59:18;;;;;;;5.68;3.15;;;;;;;10.21;93.27;100932.22;5075289;28;20392;-74
2022/12/25 08:01:43;;;;;;;8.25;3.80;;;;;;;10.22;93.80;100919.31;5073829;28;20037;-74
2022/12/25 08:04:10;;;;;;;12.70;3.67;;;;;;;10.22;93.55;100911.56;5076575;28;20036;-74
2022/12/25 08:06:36;;;;;;;10.55;3.95;;;;;;;10.24;93.87;100901.22;5069844;28;20115;-73
2022/12/25 08:09:07;;;;;;;10.35;4.00;;;;;;;10.24;93.72;100903.78;5068344;28;20113;-74
2022/12/25 08:11:32;;;;;;;8.77;3.97;;;;;;;10.22;94.94;100898.66;5072249;28;20159;-74
2022/12/25 08:13:58;;;;;;;11.00;3.70;;;;;;;10.18;95.04;100891.75;5068019;28;20474;-74
2022/12/25 08:16:23;;;;;;;10.48;4.53;;;;;;;10.15;95.40;100875.41;5066838;28;20041;-75
2022/12/25 08:18:49;;;;;;;8.25;4.60;;;;;;;10.12;95.46;100872.84;5049682;28;20040;-74
2022/12/25 08:21:15;;;;;;;10.93;4.22;;;;;;;10.09;96.27;100888.34;5060037;28;20016;-74
2022/12/25 08:23:43;;;;;;;8.05;4.18;;;;;;;10.06;96.29;100899.56;5047731;28;20033;-74
2022/12/25 08:26:11;;;;;;;10.68;3.75;;;;;;;10.05;97.30;100899.59;5053184;28;20553;-73
2022/12/25 08:28:37;;;;;;;10.75;3.95;;;;;;;10.04;97.04;100903.88;5051344;28;20036;-73
2022/12/25 08:31:23;;;;;;;10.65;3.97;;;;;;;10.03;97.30;100909.06;5056523;28;20038;-73
2022/12/25 08:33:51;;;;;;;9.57;3.72;;;;;;;10.04;97.60;100901.31;5074785;28;20040;-73
2022/12/25 08:36:17;;;;;;;12.77;4.10;;;;;;;10.05;97.10;100884.09;5048606;28;21177;-73
2022/12/25 08:38:43;;;;;;;9.43;4.38;;;;;;;10.04;97.79;100867.72;5068422;28;20033;-73
2022/12/25 08:41:10;;;;;;;9.98;4.38;;;;;;;10.04;97.31;100851.38;5062736;28;20028;-73
2022/12/25 08:43:35;;;;;;;13.93;4.95;;;;;;;10.05;97.43;100863.44;5055084;28;20394;-74
2022/12/25 08:46:01;;;;;;;8.55;3.50;;;;;;;10.05;97.05;100866.88;5053534;28;20328;-73
2022/12/25 08:48:27;;;;;;;16.20;4.03;;;;;;;10.06;97.47;100870.31;5032044;28;20132;-74
2022/12/25 08:50:53;;;;;;;13.48;4.45;;;;;;;10.07;97.16;100869.44;5049555;28;20185;-73
2022/12/25 08:53:19;;;;;;;12.75;3.45;;;;;;;10.08;96.71;100872.03;5004629;28;20513;-73
2022/12/25 08:55:45;;;;;;;13.07;4.20;;;;;;;10.13;96.41;100869.41;5005090;28;20033;-74
2022/12/25 08:58:10;;;;;;;8.10;4.00;;;;;;;10.14;96.21;100876.31;5048198;28;20036;-74
2022/12/25 09:00:36;;;;;;;6.95;3.50;;;;;;;10.15;96.60;100878.00;5034174;28;20044;-73
2022/12/25 09:03:02;;;;;;;8.13;3.90;;;;;;;10.15;96.35;100873.69;5007402;28;20029;-73
2022/12/25 09:05:28;;;;;;;6.45;3.80;;;;;;;10.15;97.16;100865.09;5051331;28;20503;-73
2022/12/25 09:07:53;;;;;;;16.75;4.45;;;;;;;10.16;96.49;100862.50;5030729;28;20037;-74
2022/12/25 09:10:20;;;;;;;11.80;4.32;;;;;;;10.17;96.79;100865.97;5029333;28;20033;-73
2022/12/25 09:12:45;;;;;;;6.07;3.47;;;;;;;10.17;96.91;100860.78;5050709;28;20154;-72
2022/12/25 09:15:11;;;;;;;9.15;3.53;;;;;;;10.16;97.50;100859.06;5040012;28;20688;-73
2022/12/25 09:17:36;;;;;;;10.00;3.45;;;;;;;10.18;97.15;100847.00;5031700;28;20048;-73
2022/12/25 09:20:02;;;;;;;9.00;3.53;;;;;;;10.19;97.26;100841.84;5055202;28;20037;-74
2022/12/25 09:22:28;;;;;;;12.23;3.50;;;;;;;10.22;97.90;100834.06;5048760;28;20044;-74
2022/12/25 09:24:53;;;;;;;6.85;3.47;;;;;;;10.23;97.60;100832.34;5047215;28;20065;-73
2022/12/25 09:27:19;;;;;;;10.82;2.92;;;;;;;10.23;97.72;100833.22;4996542;28;20037;-74
2022/12/25 09:29:44;;;;;;;9.65;3.08;;;;;;;10.24;97.51;100842.66;5020783;28;20029;-74
2022/12/25 09:32:09;;;;;;;11.15;3.50;;;;;;;10.22;97.51;100830.63;5057945;28;20037;-74
2022/12/25 09:34:35;;;;;;;10.73;4.20;;;;;;;10.21;97.65;100827.16;5034669;28;20028;-73
2022/12/25 09:37:01;;;;;;;7.90;3.45;;;;;;;10.24;97.73;100836.63;5044999;28;20403;-72
2022/12/25 09:39:26;;;;;;;11.60;3.45;;;;;;;10.22;96.93;100846.97;5061880;28;20024;-74
2022/12/25 09:42:01;;;;;;;10.07;3.80;;;;;;;10.21;97.65;100847.84;5049667;28;20110;-73
2022/12/25 09:44:36;;;;;;;10.00;4.43;;;;;;;10.18;97.23;100853.03;5022754;28;20475;-74
2022/12/25 09:47:07;;;;;;;12.68;4.20;;;;;;;10.17;97.63;100850.47;5047613;28;20068;-73
2022/12/25 09:49:56;;;;;;;9.98;3.08;;;;;;;10.16;97.75;100862.50;5030549;28;20091;-73
2022/12/25 09:52:42;;;;;;;9.82;4.30;;;;;;;10.18;97.60;100865.06;5044408;28;20671;-74
2022/12/25 09:55:19;;;;;;;12.93;3.58;;;;;;;10.16;97.91;100870.25;5047399;28;20036;-73
2022/12/25 09:57:48;;;;;;;9.90;3.17;;;;;;;10.17;97.32;100877.16;5066388;28;20555;-73
2022/12/25 10:00:19;;;;;;;12.77;4.32;;;;;;;10.17;97.69;100884.91;5056204;28;20020;-73
2022/12/25 10:03:13;;;;;;;10.30;3.60;;;;;;;10.16;97.60;100908.13;5054905;28;20029;-74
2022/12/25 10:05:51;;;;;;;11.23;4.57;;;;;;;10.15;98.24;100906.41;5089853;28;20094;-73
2022/12/25 10:08:26;;;;;;;12.85;4.22;;;;;;;10.14;98.13;100909.88;5066525;28;20029;-74
2022/12/25 10:11:14;;;;;;;13.35;5.28;;;;;;;10.14;98.47;100902.13;5043744;28;20297;-73
2022/12/25 10:13:54;;;;;;;11.88;4.32;;;;;;;10.15;98.48;100906.41;5042810;28;20044;-74
2022/12/25 10:16:52;;;;;;;9.40;4.35;;;;;;;10.14;98.81;100903.00;5066980;28;20028;-73
2022/12/25 10:19:33;;;;;;;11.77;5.32;;;;;;;10.15;99.07;100899.53;5027036;28;20040;-73
2022/12/25 10:22:10;;;;;;;15.00;5.35;;;;;;;10.18;99.81;100886.59;5059270;28;20028;-73
2022/12/25 10:24:56;;;;;;;9.65;5.13;;;;;;;10.20;100.00;100879.72;5065988;28;20029;-73
2022/12/25 10:27:33;;;;;;;18.85;8.00;;;;;;;10.22;100.00;100880.56;5074988;28;20028;-73
2022/12/25 10:29:59;;;;;;;19.02;7.15;;;;;;;10.22;100.00;100872.81;5071499;28;20048;-73
2022/12/25 10:32:25;;;;;;;19.92;9.48;;;;;;;10.24;100.00;100871.06;5052255;28;20047;-73
2022/12/25 10:34:50;;;;;;;15.40;7.55;;;;;;;10.22;100.00;100862.47;5064832;28;20032;-74
2022/12/25 10:37:16;;;;;;;13.50;6.88;;;;;;;10.23;100.00;100850.44;5055940;28;20079;-69
2022/12/25 10:39:42;;;;;;;15.55;7.80;;;;;;;10.22;100.00;100849.56;5052042;28;20040;-69
2022/12/25 10:42:26;;;;;;;19.42;8.85;;;;;;;10.20;100.00;100833.22;5053826;28;20038;-69
2022/12/25 10:44:59;;;;;;;18.73;8.43;;;;;;;10.20;100.00;100830.66;5043885;28;20128;-69
2022/12/25 10:47:29;;;;;;;16.88;6.95;;;;;;;10.18;100.00;100819.44;5052496;28;20025;-69
2022/12/25 10:49:56;;;;;;;16.90;5.85;;;;;;;10.18;100.00;100822.03;5045706;28;20567;-69
2022/12/25 10:52:25;;;;;;;17.92;11.43;;;;;;;10.19;100.00;100813.41;5046221;28;20052;-69
2022/12/25 10:54:51;;;;;;;20.17;14.00;;;;;;;10.19;100.00;100808.25;5071906;28;20417;-69
2022/12/25 10:57:20;;;;;;;17.55;12.32;;;;;;;10.19;100.00;100815.13;5048209;28;20043;-69
2022/12/25 10:59:47;;;;;;;15.55;7.10;;;;;;;10.16;100.00;100816.03;5077687;28;20032;-69
2022/12/25 11:02:15;;;;;;;9.48;4.85;;;;;;;10.16;100.00;100818.59;5077817;28;20082;-69
2022/12/25 11:04:41;;;;;;;12.02;5.40;;;;;;;10.17;100.00;100815.16;5073291;28;20090;-69
2022/12/25 11:07:19;;;;;;;14.10;4.97;;;;;;;10.18;100.00;100801.34;5066443;28;20436;-69
2022/12/25 11:09:59;;;;;;;11.32;4.93;;;;;;;10.20;100.00;100789.31;5043311;28;20046;-69
2022/12/25 11:12:37;;;;;;;9.25;4.82;;;;;;;10.22;100.00;100766.91;5051996;28;20048;-68
2022/12/25 11:15:31;;;;;;;14.32;5.25;;;;;;;10.27;100.00;100768.59;5046951;28;20522;-68
2022/12/25 11:17:57;;;;;;;11.70;5.10;;;;;;;10.29;100.00;100757.38;5042744;28;20525;-67
2022/12/25 11:20:23;;;;;;;7.53;4.22;;;;;;;10.34;100.00;100749.59;5043559;28;20037;-68
2022/12/25 11:22:49;;;;;;;12.27;4.97;;;;;;;10.40;100.00;100737.50;5046013;28;20067;-67
2022/12/25 11:25:27;;;;;;;13.95;5.20;;;;;;;10.44;100.00;100726.28;5063810;28;20473;-67
2022/12/25 11:28:12;;;;;;;13.27;5.57;;;;;;;10.51;100.00;100730.50;5053969;28;20040;-68
2022/12/25 11:30:39;;;;;;;11.13;5.75;;;;;;;10.60;100.00;100726.97;5072699;28;20431;-68
2022/12/25 11:33:11;;;;;;;10.85;5.03;;;;;;;10.65;100.00;100727.81;5044073;28;20025;-73
2022/12/25 11:35:47;;;;;;;9.98;5.20;;;;;;;10.70;100.00;100715.69;5050137;28;20522;-73
2022/12/25 11:38:13;;;;;;;8.50;4.68;;;;;;;10.75;99.75;100694.06;5066979;28;20132;-74
2022/12/25 11:40:51;;;;;;;13.38;5.10;;;;;;;10.82;100.00;100694.00;5063607;28;20123;-74
2022/12/25 11:43:26;;;;;;;10.55;4.95;;;;;;;10.83;99.32;100685.41;5069932;28;20143;-73
2022/12/25 11:45:58;;;;;;;14.25;4.75;;;;;;;10.86;99.01;100669.84;5050819;28;20041;-73
2022/12/25 11:48:30;;;;;;;13.40;5.30;;;;;;;10.93;98.59;100672.34;5053290;28;20036;-75
2022/12/25 11:51:00;;;;;;;11.63;4.88;;;;;;;10.99;98.47;100661.94;5068652;28;20036;-73
2022/12/25 11:53:32;;;;;;;8.70;4.13;;;;;;;11.02;97.96;100661.03;5071384;28;20103;-75
2022/12/25 11:56:02;;;;;;;10.98;4.25;;;;;;;11.01;97.65;100674.84;5051016;28;20126;-75
2022/12/25 11:58:49;;;;;;;11.07;5.40;;;;;;;10.98;97.89;100667.97;5069945;28;20032;-74
2022/12/25 12:01:31;;;;;;;10.80;6.03;;;;;;;10.95;97.75;100647.31;5039118;28;20037;-74
2022/12/25 12:03:59;;;;;;;13.52;6.10;;;;;;;10.97;97.96;100650.75;5071445;28;20112;-74
2022/12/25 12:06:33;;;;;;;8.13;4.53;;;;;;;11.02;97.88;100642.91;5057216;28;20016;-75
2022/12/25 12:09:20;;;;;;;9.35;4.78;;;;;;;11.09;97.49;100647.16;5049429;28;20056;-74
2022/12/25 12:11:59;;;;;;;8.75;4.45;;;;;;;11.15;97.37;100641.91;5046656;28;21255;-75
2022/12/25 12:14:46;;;;;;;10.48;4.80;;;;;;;11.20;97.10;100643.56;5069103;28;20099;-74
2022/12/25 12:17:14;;;;;;;10.52;4.47;;;;;;;11.25;96.26;100646.06;5050564;28;20059;-74
2022/12/25 12:19:39;;;;;;;6.63;4.63;;;;;;;11.28;96.47;100646.91;5051987;28;20033;-74
2022/12/25 12:22:05;;;;;;;9.23;4.70;;;;;;;11.29;96.64;100640.00;5048943;28;20074;-74
2022/12/25 12:24:39;;;;;;;9.82;5.28;;;;;;;11.30;96.37;100641.72;5048939;28;20025;-74
2022/12/25 12:27:31;;;;;;;12.65;5.80;;;;;;;11.30;96.47;100631.38;5051565;28;20048;-74
2022/12/25 12:29:59;;;;;;;7.28;4.50;;;;;;;11.31;96.37;100617.53;5044282;28;20068;-74
2022/12/25 12:32:41;;;;;;;9.77;4.45;;;;;;;11.34;96.39;100627.84;5047241;28;20037;-75
2022/12/25 12:35:13;;;;;;;10.30;4.65;;;;;;;11.33;96.08;100639.09;5047182;28;20032;-74
2022/12/25 12:37:40;;;;;;;10.90;4.80;;;;;;;11.34;96.17;100640.78;5066300;28;20048;-74
2022/12/25 12:40:20;;;;;;;9.15;5.15;;;;;;;11.34;96.61;100646.81;5048189;28;20090;-75
2022/12/25 12:42:49;;;;;;;9.40;4.72;;;;;;;11.37;96.69;100642.50;5044101;28;20031;-74
2022/12/25 12:45:28;;;;;;;9.27;5.22;;;;;;;11.43;96.41;100648.44;5022452;28;20118;-75
2022/12/25 12:47:54;;;;;;;11.75;4.82;;;;;;;11.45;95.79;100640.69;5048858;28;20071;-75
2022/12/25 12:50:39;;;;;;;15.40;5.25;;;;;;;11.46;96.03;100635.47;5049261;28;20943;-75
2022/12/25 12:53:22;;;;;;;9.63;5.13;;;;;;;11.46;95.90;100638.06;5047689;28;20029;-75
2022/12/25 12:55:49;;;;;;;10.63;4.68;;;;;;;11.45;95.69;100643.28;5061732;28;20044;-74
2022/12/25 12:58:33;;;;;;;8.32;4.93;;;;;;;11.45;95.65;100636.38;5045335;28;20056;-75
2022/12/25 13:01:21;;;;;;;10.32;5.30;;;;;;;11.43;95.82;100622.56;5067368;28;20065;-74
2022/12/25 13:04:14;;;;;;;6.88;4.68;;;;;;;11.45;96.02;100612.22;5043755;28;20044;-76
2022/12/25 13:06:47;;;;;;;7.03;4.00;;;;;;;11.46;95.39;100608.72;5064673;28;20473;-72
2022/12/25 13:09:29;;;;;;;11.27;4.15;;;;;;;11.44;95.91;100608.75;5048245;28;20024;-73
2022/12/25 13:11:55;;;;;;;7.20;4.20;;;;;;;11.43;95.94;100612.22;5059702;28;20036;-75
2022/12/25 13:14:22;;;;;;;8.88;4.47;;;;;;;11.43;96.03;100613.91;5047010;28;20489;-72